AirNav   Air Wisconsin pilot careers
 
 1510 users online  

KCOI Merritt Island Airport
Merritt Island, Florida, USA

GOING TO MERRITT ISLAND?


FAA INFORMATION EFFECTIVE 16 AUGUST 2018

Location

FAA Identifier: COI
Lat/Long: 28-20-29.8000N / 080-41-07.7000W
28-20.496667N / 080-41.128333W
28.3416111 / -80.6854722
(estimated)
Elevation: 5.9 ft. / 1.8 m (surveyed)
Variation: 05W (2000)
Time zone: UTC -4 (UTC -5 during Standard Time)
Zip code: 32952

Airport Operations

Airport use: Open to the public
Activation date: 06/1952
Control tower: no
ARTCC: JACKSONVILLE CENTER
FSS: SAINT PETERSBURG FLIGHT SERVICE STATION
NOTAMs facility: PIE (NOTAM-D service available)
Attendance: 0800-2000
Wind indicator: lighted
Segmented circle: yes
Lights: ACTVT MIRL RY 11/29 - CTAF.
Beacon: white-green (lighted land airport)
ACTVT ROTG BCN - CTAF.
International operations: customs landing rights airport

Airport Communications

CTAF/UNICOM: 122.975
WX AWOS-3: 119.025 (321-986-8864)
ORLANDO APCH APPROACH: 134.95 134.95
ORLANDO APCH DEPARTURE: 134.95 134.95
BITHO STAR: 128.375
COSTR STAR: 128.375
MINEE STAR: 134.05
WX AWOS-3PT at TIX (12 nm NW): 120.625 (321-567-6090)
WX ASOS at MLB (14 nm S): PHONE 321-723-7403
WX AWOS-3 at X21 (19 nm NW): 119.725 (321-385-0384)

Nearby radio navigation aids

VOR radial/distance  VOR name  Freq  Var
MLBr356/14.4MELBOURNE VOR/DME110.0007W
ORLr109/36.3ORLANDO VORTAC112.2000E

 
NDB name  Hdg/Dist  Freq  Var  ID
SATELLITE009/14.525706WSQT ... --.- -

Airport Services

Fuel available: 100LL JET-A
Parking: tiedowns
Airframe service: MAJOR
Powerplant service: MAJOR
Bottled oxygen: NONE
Bulk oxygen: NONE

Runway Information

Runway 11/29

Dimensions: 3601 x 75 ft. / 1098 x 23 m
Surface: asphalt, in fair condition
Weight bearing capacity: 
Single wheel: 22.0
Runway edge lights: medium intensity
RUNWAY 11  RUNWAY 29
Latitude: 28-20.594410N28-20.397540N
Longitude: 080-41.445940W080-40.812175W
Elevation: 5.9 ft.2.9 ft.
Gradient: 0.1%0.1%
Traffic pattern: leftleft
Runway heading: 114 magnetic, 109 true294 magnetic, 289 true
Markings: nonprecision, in good conditionnonprecision, in good condition
Visual slope indicator: 2-light PAPI on left (3.00 degrees glide path)2-light PAPI on left (3.00 degrees glide path)
Touchdown point: yes, no lightsyes, no lights
Obstructions: 20 ft. bldg, 200 ft. from runway, 250 ft. left of centerline
APCH SLOPE 25:1 TO THE DSPLCD THLD.
25 ft. boat, 700 ft. from runway, 250 ft. right of centerline, 20:1 slope to clear

Airport Ownership and Management from official FAA records

Ownership: Publicly-owned
Owner: TITUSVILLE-COCOA AIRPORT DISTRICT
355 GOLDEN KNIGHTS BLVD
TITUSVILLE, FL 32780
Phone 321-267-8780
CONTACT PERSON: MICHAEL POWELL C.M, ACE
Manager: DEBBIE MARINO
355 GOLDEN KNIGHTS BLVD
TITUSVILLE, FL 32780
Phone 321-267-8780
ARPT PHONE 321-453-2222.

Airport Operational Statistics

Aircraft based on the field: 136
Single engine airplanes: 113
Multi engine airplanes: 16
Jet airplanes: 1
Helicopters: 6
    
Aircraft operations: avg 311/day *
56% local general aviation
42% transient general aviation
1% air taxi
* for 12-month period ending 09 August 2017

Additional Remarks

BANNER TOWING.
24 HR HELICOPTER OPNS SW RAMP.
PATRICK AIR FORCE BASE (COF) CLASS D AIRSPACE IS IN CLOSE PROXIMITY TO MERRITT ISLAND ARPT AND COF CROSSING RWY 11/29 HAS SAME ORIENTATION AS MERRITT ISLAND ARPT.

Instrument Procedures

NOTE: All procedures below are presented as PDF files. If you need a reader for these files, you should download the free Adobe Reader.

NOT FOR NAVIGATION. Please procure official charts for flight.
FAA instrument procedures published for use from 16 August 2018 at 0901Z to 13 September 2018 at 0900Z.

 
STARs - Standard Terminal Arrivals
BITHO SEVEN   download (191KB)
COSTR THREE (RNAV)   2 pages: [1] [2] (285KB)
GOOFY SEVEN   download (246KB)
MINEE FIVE   2 pages: [1] [2] (318KB)
 
IAPs - Instrument Approach Procedures
RNAV (GPS) RWY 11   download (227KB)
NOTE: Special Alternate Minimums apply   download (20KB)
NOTE: Special Take-Off Minimums/Departure Procedures apply   download (162KB)

Other nearby airports with instrument procedures:

KCOF - Patrick Air Force Base (8 nm SE)
KXMR - Cape Canaveral Air Force Station Skid Strip (10 nm NE)
KTIX - Space Coast Regional Airport (12 nm NW)
KMLB - Melbourne International Airport (14 nm S)
KTTS - NASA Shuttle Landing Facility (16 nm N)
X21 - Arthur Dunn Air Park (19 nm NW)
 
Loc | Ops | Rwys | IFR | FBO | Links
Com | Nav | Svcs | Stats | Notes


 
Area around KCOI (Merritt Island Airport)
 
Road maps at: MapQuest Bing Google
 
Aerial photo
WARNING: Photo may not be current or correct
Aerial photo of KCOI (Merritt Island Airport)
Photo by Whitney Van Brink
Photo taken 19-Feb-2007
from a Cessna 177B

Do you have a better or more recent aerial photo of Merritt Island Airport that you would like to share? If so, please send us your photo.

 
Sectional chart

 
Airport distance calculator
Flying to Merritt Island Airport? Find the distance to fly.

From to KCOI

Sunrise and sunset
Times for 17-Aug-2018
 Local
(UTC-4)
 Zulu
(UTC)
Morning civil twilight06:3010:30
Sunrise06:5410:54
Sunset19:5923:59
Evening civil twilight20:2400:24

Current date and time
Zulu (UTC)  17-Aug-2018 19:16:54
Local (UTC-4)  17-Aug-2018 15:16:54
 
METAR
KCOF 
9nm SE 
171856Z AUTO 11009KT 10SM CLR 31/25 A3018 RMK AO2 DZB14E32 SLP224 P0000 T03110254 $
KXMR 
11nm NE 
171856Z AUTO 13009KT 10SM CLR 32/23 A3016 RMK AO2 SLP216 T03150230 $
KTIX 
12nm NW 
171850Z 14010KT 7SM FEW035 34/21 A3018
KMLB 
15nm S 
171853Z 11010KT 10SM SCT032 32/23 A3017 RMK AO2 SLP217 T03220228
KTTS 
17nm N 
171856Z AUTO 12007KT 10SM CLR 32/23 A3017 RMK AO2 SLP221 T03230229 $
TAF
KCOF 
9nm SE 
171800Z 1718/1824 11010KT 9999 SCT030 SCT200 QNH3012INS BECMG 1806/1807 15004KT 9999 SCT020 QNH3016INS BECMG 1814/1815 12006KT 9999 FEW020 SCT035 QNH3013INS TX31/1718Z TN26/1809Z
KTIX 
12nm NW 
171720Z 1718/1818 11010KT P6SM FEW040 SCT250 FM180100 13005KT P6SM SCT250 FM181300 12006KT P6SM SCT030
KMLB 
15nm S 
171720Z 1718/1818 11011KT P6SM FEW040 SCT250 FM180100 13006KT P6SM SCT250 FM181300 12006KT P6SM SCT030
NOTAMs
Click for the latest NOTAMs
NOTAMs are issued by the DoD/FAA and will open in a separate window not controlled by AirNav.

 

 
 

FBO, Fuel Providers, and Aircraft Ground Support

  
 Business Name 
 
 Contact 
 
 Services / Description 
 
Fuel Prices
 
Comments
  
 Space Coast Aviation
321-453-2222
[web site]
[email]

Like us on facebook
Aviation fuel, Aircraft parking (ramp or tiedown), Flight training, Aircraft rental, Aerial tours / aerial sightseeing, Aerial photography, Aircraft maintenance, ...

More info about Space Coast Aviation
Phillips 66
100LL
FS $5.39 
SS $4.73 
GUARANTEED
 
   6 read write
FS=Full service
SS=Self service
Update Fuel Prices
 

Would you like to see your business listed on this page?

 If your business provides an interesting product or service to pilots, flight crews, aircraft, or users of the Merritt Island Airport, you should consider listing it here.  To start the listing process, click on the button below
 
Add a business
 

Other Pages about Merritt Island Airport

www.flairport.com
 
Update a link
 
Copyright © AirNav, LLC. All rights reserved. Privacy Policy  Contact